Amarant — CQSF — position and weather

sailwx.info

Track history (hours):
 
Tides and Currents Weather Stations Pressure Air Temp Water Temp Dewpoint Dewpoint Depression Visibility Wind Speed Wind Dir Waves Ship Positions

Amarant

Last reported at 2016-Feb-12 13:32 UTC. Time now 2016-Feb-12 14:12 UTC.
Position N 51°15' E 004°22'.

Length 123 m; draft 7.4 m.

Type: Tanker. MMSI: 255623000.

Date/timePositionNaut miles runAvg speedWind from/ knotsBaromVisibWave heightAir tempDewpointWater temp
2016-Feb-12 13:32N 51°15' E 004°22'0 0.0
2016-Feb-12 12:32N 51°15' E 004°22'0 0.0
2016-Feb-12 11:32N 51°15' E 004°22'0 0.0
2016-Feb-12 10:32N 51°15' E 004°22'0 0.2
2016-Feb-12 09:34N 51°15' E 004°22'2 2.0
2016-Feb-12 08:33N 51°17' E 004°20'3 3.1
2016-Feb-12 07:33N 51°19' E 004°16'6 5.9
2016-Feb-12 06:32N 51°23' E 004°10'8 7.7
2016-Feb-12 05:33N 51°25' E 003°58'9 9.5
2016-Feb-12 04:33N 51°23' E 003°43'1110.7
2016-Feb-12 03:33N 51°29' E 003°30'1211.8
2016-Feb-12 02:33N 51°39' E 003°19'13011.8
2016-Feb-11 15:33N 53°34' E 005°00'1313.0
2016-Feb-11 14:33N 53°38' E 005°21'1312.6
2016-Feb-11 13:33N 53°42' E 005°41'1212.0
2016-Feb-11 12:33N 53°46' E 006°00'1111.1
2016-Feb-11 11:33N 53°49' E 006°18'1010.2
2016-Feb-11 10:33N 53°52' E 006°35'10 9.5
2016-Feb-11 09:33N 53°54' E 006°51'9 9.1
2016-Feb-11 08:33N 53°56' E 007°06'9 9.1
2016-Feb-11 07:33N 53°59' E 007°21'10 9.8
2016-Feb-11 06:33N 54°01' E 007°37'1010.0
2016-Feb-11 05:33N 54°01' E 007°54'1111.2
2016-Feb-11 04:33N 54°01' E 008°13'1111.5
2016-Feb-11 03:34N 53°58' E 008°32'1211.8
2016-Feb-11 02:33N 53°51' E 008°47'1010.2
2016-Feb-11 01:33N 53°52' E 009°04'3 3.3
2016-Feb-11 00:33N 53°54' E 009°09'8 8.1
2016-Feb-10 23:33N 54°00' E 009°18'5 4.6
2016-Feb-10 22:33N 54°05' E 009°19'21 6.9
2016-Feb-10 19:34N 54°20' E 009°44'6 5.6
2016-Feb-10 18:33N 54°21' E 009°53'6 5.7
2016-Feb-10 17:33N 54°22' E 010°03'3 2.8
2016-Feb-10 16:33N 54°22' E 010°08'0 0.0
2016-Feb-10 15:33N 54°22' E 010°08'0 0.0
2016-Feb-10 14:30N 54°22' E 010°08'1 0.6
2016-Feb-10 13:33N 54°22' E 010°09'5 5.5
2016-Feb-10 12:33N 54°27' E 010°14'1111.5
2016-Feb-10 11:33N 54°33' E 010°30'1212.3
2016-Feb-10 10:33N 54°36' E 010°51'1211.6
2016-Feb-10 09:33N 54°36' E 011°11'1212.3
2016-Feb-10 08:33N 54°31' E 011°30'1211.8
2016-Feb-10 07:33N 54°26' E 011°48'1111.3
2016-Feb-10 06:34N 54°26' E 012°08'2010.0
2016-Feb-10 04:33N 54°42' E 012°28'4112.1
2016-Feb-10 01:08N 54°58' E 013°34'712.1
2016-Feb-10 00:33N 55°01' E 013°45'1312.5
2016-Feb-09 23:33N 55°05' E 014°05'1312.8
2016-Feb-09 22:33N 55°15' E 014°19'1313.2
2016-Feb-09 21:33N 55°26' E 014°33'1313.4
2016-Feb-09 20:33N 55°33' E 014°53'1313.0
2016-Feb-09 19:33N 55°39' E 015°13'10510.4
2016-Feb-09 09:33N 57°01' E 017°12'1111.2
2016-Feb-09 08:33N 57°12' E 017°16'1111.4
2016-Feb-09 07:33N 57°23' E 017°20'1211.6
2016-Feb-09 06:33N 57°34' E 017°25'1 0.0
2016-Feb-07 18:28N 57°35' E 017°26'1415.3
2016-Feb-07 17:33N 57°21' E 017°20'1515.1
2016-Feb-07 16:34N 57°07' E 017°14'1515.1
2016-Feb-07 15:32N 56°52' E 017°08'8313.3
2016-Feb-07 09:19N 55°44' E 015°42'1114.4
2016-Feb-07 08:33N 55°38' E 015°25'1414.5
2016-Feb-07 07:33N 55°31' E 015°03'1514.9
2016-Feb-07 06:33N 55°24' E 014°40'1514.8
2016-Feb-07 05:33N 55°12' E 014°23'1514.7
2016-Feb-07 04:33N 55°02' E 014°06'1514.8
2016-Feb-07 03:33N 54°57' E 013°41'1515.2
2016-Feb-07 02:33N 54°51' E 013°16'1413.9
2016-Feb-07 01:33N 54°47' E 012°53'1313.4
2016-Feb-07 00:33N 54°41' E 012°33'1413.7
2016-Feb-06 23:33N 54°31' E 012°16'1312.4
2016-Feb-06 22:32N 54°24' E 011°58'1313.6
2016-Feb-06 21:33N 54°27' E 011°36'1413.7
2016-Feb-06 20:33N 54°33' E 011°14'1414.1
2016-Feb-06 19:34N 54°34' E 010°50'1614.5
2016-Feb-06 18:29N 54°31' E 010°24'1112.0
2016-Feb-06 17:33N 54°22' E 010°11'2 1.7
2016-Feb-06 16:33N 54°22' E 010°08'5 4.8
2016-Feb-06 15:33N 54°21' E 010°00'8 7.7
2016-Feb-06 14:33N 54°22' E 009°47'7 6.7
2016-Feb-06 13:31N 54°17' E 009°38'3 2.8
2016-Feb-06 12:26N 54°14' E 009°36'20 7.1
2016-Feb-06 09:33N 53°58' E 009°15'6 5.6
2016-Feb-06 08:33N 53°54' E 009°09'3 2.6
2016-Feb-06 07:33N 53°53' E 009°05'1211.9
2016-Feb-06 06:33N 53°52' E 008°44'1313.2
2016-Feb-06 05:34N 53°59' E 008°26'1413.7
2016-Feb-06 04:33N 53°59' E 008°02'1514.8
2016-Feb-06 03:33N 53°55' E 007°38'1413.8
2016-Feb-06 02:33N 53°52' E 007°15'1413.6
2016-Feb-06 01:33N 53°49' E 006°52'1313.4
2016-Feb-06 00:33N 53°46' E 006°30'1413.5
2016-Feb-05 23:33N 53°42' E 006°08'1413.8
2016-Feb-05 22:33N 53°38' E 005°47'1413.8
2016-Feb-05 21:34N 53°33' E 005°24'1413.9
2016-Feb-05 20:33N 53°28' E 005°02'2612.8
2016-Feb-05 18:30N 53°10' E 004°32'1314.1
2016-Feb-05 17:33N 52°58' E 004°21'1414.0
2016-Feb-05 16:34N 52°46' E 004°09'4814.3
2016-Feb-05 13:11N 52°06' E 003°25'1015.2
2016-Feb-05 12:32N 51°56' E 003°23'1514.0
2016-Feb-05 11:30N 51°42' E 003°18'1314.1
2016-Feb-05 10:33N 51°30' E 003°28'1110.8
2016-Feb-05 09:33N 51°24' E 003°42'10 9.6
2016-Feb-05 08:33N 51°24' E 003°57'8 8.2
2016-Feb-05 07:33N 51°23' E 004°10'9 9.1
2016-Feb-05 06:34N 51°17' E 004°20'0 0.3
2016-Feb-05 05:33N 51°16' E 004°20'2 1.8
2016-Feb-05 04:33N 51°15' E 004°22'0 0.0
2016-Feb-05 03:33N 51°15' E 004°22'0 0.0
2016-Feb-05 02:33N 51°15' E 004°22'0 0.0
2016-Feb-05 01:33N 51°15' E 004°22'0 0.0
2016-Feb-05 00:33N 51°15' E 004°22'0 0.0
2016-Feb-04 23:33N 51°15' E 004°22'0 0.0
2016-Feb-04 22:33N 51°15' E 004°22'0 0.0
2016-Feb-04 21:33N 51°15' E 004°22'0 0.0
2016-Feb-04 20:33N 51°15' E 004°22'0 0.0
2016-Feb-04 19:33N 51°15' E 004°22'0 0.0
2016-Feb-04 18:30N 51°15' E 004°22'0 0.0
2016-Feb-04 17:33N 51°15' E 004°22'0 0.0
2016-Feb-04 16:33N 51°15' E 004°22'0 0.0
2016-Feb-04 15:33N 51°15' E 004°22'0 0.0
2016-Feb-04 14:33N 51°15' E 004°22'0 0.0
2016-Feb-04 13:33N 51°15' E 004°22'0 0.0
2016-Feb-04 12:33N 51°15' E 004°22'0 0.0
2016-Feb-04 11:33N 51°15' E 004°22'0 0.0
2016-Feb-04 10:33N 51°15' E 004°22'0 0.0
2016-Feb-04 09:33N 51°15' E 004°22'0 0.0
2016-Feb-04 08:33N 51°15' E 004°22'0 0.0
2016-Feb-04 07:33N 51°15' E 004°22'0 0.0
2016-Feb-04 06:33N 51°15' E 004°22'2 2.1
2016-Feb-04 05:33N 51°17' E 004°20'4 4.4
2016-Feb-04 04:33N 51°21' E 004°17'1 0.7
2016-Feb-04 03:33N 51°21' E 004°16'9 8.5
2016-Feb-04 02:34N 51°23' E 004°03'6 6.4
2016-Feb-04 01:33N 51°21' E 003°53'10 9.8
2016-Feb-04 00:34N 51°25' E 003°39'8 8.4
2016-Feb-03 23:33N 51°30' E 003°28'1111.4
2016-Feb-03 22:33N 51°40' E 003°18'13110.1
2016-Feb-03 09:32N 53°35' E 005°03'8 8.1
2016-Feb-03 08:31N 53°38' E 005°16'8 8.4
2016-Feb-03 07:33N 53°40' E 005°29'8 8.3
2016-Feb-03 06:33N 53°43' E 005°42'8 8.0
2016-Feb-03 05:33N 53°45' E 005°55'8 7.5
2016-Feb-03 04:33N 53°47' E 006°07'7 7.2
2016-Feb-03 03:33N 53°50' E 006°19'6 6.4
2016-Feb-03 02:33N 53°51' E 006°29'6 6.2
2016-Feb-03 01:33N 53°53' E 006°39'6 6.1
2016-Feb-03 00:33N 53°54' E 006°49'6 6.4
2016-Feb-02 23:33N 53°56' E 006°60'7 6.7
2016-Feb-02 22:33N 53°57' E 007°11'7 7.3
2016-Feb-02 21:33N 53°59' E 007°23'7 6.8
2016-Feb-02 20:33N 54°01' E 007°34'7 6.9
2016-Feb-02 19:33N 54°02' E 007°46'7 6.7
2016-Feb-02 18:33N 54°02' E 007°57'7 6.8
2016-Feb-02 17:33N 54°01' E 008°08'7 7.3
2016-Feb-02 16:34N 53°60' E 008°21'10 9.5
2016-Feb-02 15:33N 53°58' E 008°37'10 9.9
2016-Feb-02 14:33N 53°50' E 008°48'1212.0
2016-Feb-02 13:34N 53°53' E 009°08'  
Track history (hours):
 
Tides and Currents Weather Stations Pressure Air Temp Water Temp Dewpoint Dewpoint Depression Visibility Wind Speed Wind Dir Waves Ship Positions

Amarant

Last reported at 2016-Feb-12 13:32 UTC. Time now 2016-Feb-12 14:12 UTC.
Position N 51°15' E 004°22'.

Length 123 m; draft 7.4 m.

Type: Tanker. MMSI: 255623000.

Date/timePositionNaut miles runAvg speedWind from/ knotsBaromVisibWave heightAir tempDewpointWater temp
2016-Feb-12 13:32N 51°15' E 004°22'0 0.0
2016-Feb-12 12:32N 51°15' E 004°22'0 0.0
2016-Feb-12 11:32N 51°15' E 004°22'0 0.0
2016-Feb-12 10:32N 51°15' E 004°22'0 0.2
2016-Feb-12 09:34N 51°15' E 004°22'2 2.0
2016-Feb-12 08:33N 51°17' E 004°20'3 3.1
2016-Feb-12 07:33N 51°19' E 004°16'6 5.9
2016-Feb-12 06:32N 51°23' E 004°10'8 7.7
2016-Feb-12 05:33N 51°25' E 003°58'9 9.5
2016-Feb-12 04:33N 51°23' E 003°43'1110.7
2016-Feb-12 03:33N 51°29' E 003°30'1211.8
2016-Feb-12 02:33N 51°39' E 003°19'13011.8
2016-Feb-11 15:33N 53°34' E 005°00'1313.0
2016-Feb-11 14:33N 53°38' E 005°21'1312.6
2016-Feb-11 13:33N 53°42' E 005°41'1212.0
2016-Feb-11 12:33N 53°46' E 006°00'1111.1
2016-Feb-11 11:33N 53°49' E 006°18'1010.2
2016-Feb-11 10:33N 53°52' E 006°35'10 9.5
2016-Feb-11 09:33N 53°54' E 006°51'9 9.1
2016-Feb-11 08:33N 53°56' E 007°06'9 9.1
2016-Feb-11 07:33N 53°59' E 007°21'10 9.8
2016-Feb-11 06:33N 54°01' E 007°37'1010.0
2016-Feb-11 05:33N 54°01' E 007°54'1111.2
2016-Feb-11 04:33N 54°01' E 008°13'1111.5
2016-Feb-11 03:34N 53°58' E 008°32'1211.8
2016-Feb-11 02:33N 53°51' E 008°47'1010.2
2016-Feb-11 01:33N 53°52' E 009°04'3 3.3
2016-Feb-11 00:33N 53°54' E 009°09'8 8.1
2016-Feb-10 23:33N 54°00' E 009°18'5 4.6
2016-Feb-10 22:33N 54°05' E 009°19'21 6.9
2016-Feb-10 19:34N 54°20' E 009°44'6 5.6
2016-Feb-10 18:33N 54°21' E 009°53'6 5.7
2016-Feb-10 17:33N 54°22' E 010°03'3 2.8
2016-Feb-10 16:33N 54°22' E 010°08'0 0.0
2016-Feb-10 15:33N 54°22' E 010°08'0 0.0
2016-Feb-10 14:30N 54°22' E 010°08'1 0.6
2016-Feb-10 13:33N 54°22' E 010°09'5 5.5
2016-Feb-10 12:33N 54°27' E 010°14'1111.5
2016-Feb-10 11:33N 54°33' E 010°30'1212.3
2016-Feb-10 10:33N 54°36' E 010°51'1211.6
2016-Feb-10 09:33N 54°36' E 011°11'1212.3
2016-Feb-10 08:33N 54°31' E 011°30'1211.8
2016-Feb-10 07:33N 54°26' E 011°48'1111.3
2016-Feb-10 06:34N 54°26' E 012°08'2010.0
2016-Feb-10 04:33N 54°42' E 012°28'4112.1
2016-Feb-10 01:08N 54°58' E 013°34'712.1
2016-Feb-10 00:33N 55°01' E 013°45'1312.5
2016-Feb-09 23:33N 55°05' E 014°05'1312.8
2016-Feb-09 22:33N 55°15' E 014°19'1313.2
2016-Feb-09 21:33N 55°26' E 014°33'1313.4
2016-Feb-09 20:33N 55°33' E 014°53'1313.0
2016-Feb-09 19:33N 55°39' E 015°13'10510.4
2016-Feb-09 09:33N 57°01' E 017°12'1111.2
2016-Feb-09 08:33N 57°12' E 017°16'1111.4
2016-Feb-09 07:33N 57°23' E 017°20'1211.6
2016-Feb-09 06:33N 57°34' E 017°25'1 0.0
2016-Feb-07 18:28N 57°35' E 017°26'1415.3
2016-Feb-07 17:33N 57°21' E 017°20'1515.1
2016-Feb-07 16:34N 57°07' E 017°14'1515.1
2016-Feb-07 15:32N 56°52' E 017°08'8313.3
2016-Feb-07 09:19N 55°44' E 015°42'1114.4
2016-Feb-07 08:33N 55°38' E 015°25'1414.5
2016-Feb-07 07:33N 55°31' E 015°03'1514.9
2016-Feb-07 06:33N 55°24' E 014°40'1514.8
2016-Feb-07 05:33N 55°12' E 014°23'1514.7
2016-Feb-07 04:33N 55°02' E 014°06'1514.8
2016-Feb-07 03:33N 54°57' E 013°41'1515.2
2016-Feb-07 02:33N 54°51' E 013°16'1413.9
2016-Feb-07 01:33N 54°47' E 012°53'1313.4
2016-Feb-07 00:33N 54°41' E 012°33'1413.7
2016-Feb-06 23:33N 54°31' E 012°16'1312.4
2016-Feb-06 22:32N 54°24' E 011°58'1313.6
2016-Feb-06 21:33N 54°27' E 011°36'1413.7
2016-Feb-06 20:33N 54°33' E 011°14'1414.1
2016-Feb-06 19:34N 54°34' E 010°50'1614.5
2016-Feb-06 18:29N 54°31' E 010°24'1112.0
2016-Feb-06 17:33N 54°22' E 010°11'2 1.7
2016-Feb-06 16:33N 54°22' E 010°08'5 4.8
2016-Feb-06 15:33N 54°21' E 010°00'8 7.7
2016-Feb-06 14:33N 54°22' E 009°47'7 6.7
2016-Feb-06 13:31N 54°17' E 009°38'3 2.8
2016-Feb-06 12:26N 54°14' E 009°36'20 7.1
2016-Feb-06 09:33N 53°58' E 009°15'6 5.6
2016-Feb-06 08:33N 53°54' E 009°09'3 2.6
2016-Feb-06 07:33N 53°53' E 009°05'1211.9
2016-Feb-06 06:33N 53°52' E 008°44'1313.2
2016-Feb-06 05:34N 53°59' E 008°26'1413.7
2016-Feb-06 04:33N 53°59' E 008°02'1514.8
2016-Feb-06 03:33N 53°55' E 007°38'1413.8
2016-Feb-06 02:33N 53°52' E 007°15'1413.6
2016-Feb-06 01:33N 53°49' E 006°52'1313.4
2016-Feb-06 00:33N 53°46' E 006°30'1413.5
2016-Feb-05 23:33N 53°42' E 006°08'1413.8
2016-Feb-05 22:33N 53°38' E 005°47'1413.8
2016-Feb-05 21:34N 53°33' E 005°24'1413.9
2016-Feb-05 20:33N 53°28' E 005°02'2612.8
2016-Feb-05 18:30N 53°10' E 004°32'1314.1
2016-Feb-05 17:33N 52°58' E 004°21'1414.0
2016-Feb-05 16:34N 52°46' E 004°09'4814.3
2016-Feb-05 13:11N 52°06' E 003°25'1015.2
2016-Feb-05 12:32N 51°56' E 003°23'1514.0
2016-Feb-05 11:30N 51°42' E 003°18'1314.1
2016-Feb-05 10:33N 51°30' E 003°28'1110.8
2016-Feb-05 09:33N 51°24' E 003°42'10 9.6
2016-Feb-05 08:33N 51°24' E 003°57'8 8.2
2016-Feb-05 07:33N 51°23' E 004°10'9 9.1
2016-Feb-05 06:34N 51°17' E 004°20'0 0.3
2016-Feb-05 05:33N 51°16' E 004°20'2 1.8
2016-Feb-05 04:33N 51°15' E 004°22'0 0.0
2016-Feb-05 03:33N 51°15' E 004°22'0 0.0
2016-Feb-05 02:33N 51°15' E 004°22'0 0.0
2016-Feb-05 01:33N 51°15' E 004°22'0 0.0
2016-Feb-05 00:33N 51°15' E 004°22'0 0.0
2016-Feb-04 23:33N 51°15' E 004°22'0 0.0
2016-Feb-04 22:33N 51°15' E 004°22'0 0.0
2016-Feb-04 21:33N 51°15' E 004°22'0 0.0
2016-Feb-04 20:33N 51°15' E 004°22'0 0.0
2016-Feb-04 19:33N 51°15' E 004°22'0 0.0
2016-Feb-04 18:30N 51°15' E 004°22'0 0.0
2016-Feb-04 17:33N 51°15' E 004°22'0 0.0
2016-Feb-04 16:33N 51°15' E 004°22'0 0.0
2016-Feb-04 15:33N 51°15' E 004°22'0 0.0
2016-Feb-04 14:33N 51°15' E 004°22'0 0.0
2016-Feb-04 13:33N 51°15' E 004°22'0 0.0
2016-Feb-04 12:33N 51°15' E 004°22'0 0.0
2016-Feb-04 11:33N 51°15' E 004°22'0 0.0
2016-Feb-04 10:33N 51°15' E 004°22'0 0.0
2016-Feb-04 09:33N 51°15' E 004°22'0 0.0
2016-Feb-04 08:33N 51°15' E 004°22'0 0.0
2016-Feb-04 07:33N 51°15' E 004°22'0 0.0
2016-Feb-04 06:33N 51°15' E 004°22'2 2.1
2016-Feb-04 05:33N 51°17' E 004°20'4 4.4
2016-Feb-04 04:33N 51°21' E 004°17'1 0.7
2016-Feb-04 03:33N 51°21' E 004°16'9 8.5
2016-Feb-04 02:34N 51°23' E 004°03'6 6.4
2016-Feb-04 01:33N 51°21' E 003°53'10 9.8
2016-Feb-04 00:34N 51°25' E 003°39'8 8.4
2016-Feb-03 23:33N 51°30' E 003°28'1111.4
2016-Feb-03 22:33N 51°40' E 003°18'13110.1
2016-Feb-03 09:32N 53°35' E 005°03'8 8.1
2016-Feb-03 08:31N 53°38' E 005°16'8 8.4
2016-Feb-03 07:33N 53°40' E 005°29'8 8.3
2016-Feb-03 06:33N 53°43' E 005°42'8 8.0
2016-Feb-03 05:33N 53°45' E 005°55'8 7.5
2016-Feb-03 04:33N 53°47' E 006°07'7 7.2
2016-Feb-03 03:33N 53°50' E 006°19'6 6.4
2016-Feb-03 02:33N 53°51' E 006°29'6 6.2
2016-Feb-03 01:33N 53°53' E 006°39'6 6.1
2016-Feb-03 00:33N 53°54' E 006°49'6 6.4
2016-Feb-02 23:33N 53°56' E 006°60'7 6.7
2016-Feb-02 22:33N 53°57' E 007°11'7 7.3
2016-Feb-02 21:33N 53°59' E 007°23'7 6.8
2016-Feb-02 20:33N 54°01' E 007°34'7 6.9
2016-Feb-02 19:33N 54°02' E 007°46'7 6.7
2016-Feb-02 18:33N 54°02' E 007°57'7 6.8
2016-Feb-02 17:33N 54°01' E 008°08'7 7.3
2016-Feb-02 16:34N 53°60' E 008°21'10 9.5
2016-Feb-02 15:33N 53°58' E 008°37'10 9.9
2016-Feb-02 14:33N 53°50' E 008°48'1212.0
2016-Feb-02 13:34N 53°53' E 009°08'  

Dump ship's entire track history